sensor_id;sensor_type;location;lat;lon;timestamp;P1;durP1;ratioP1;P2;durP2;ratioP2
20699;SDS011;10511;51.232;9.420;2023-04-12T00:01:01;1.10;;;1.10;;
20699;SDS011;10511;51.232;9.420;2023-04-12T00:03:28;1.10;;;1.10;;
20699;SDS011;10511;51.232;9.420;2023-04-12T00:05:58;1.10;;;1.10;;
20699;SDS011;10511;51.232;9.420;2023-04-12T00:08:28;1.10;;;1.10;;
20699;SDS011;10511;51.232;9.420;2023-04-12T00:10:59;1.10;;;1.10;;
20699;SDS011;10511;51.232;9.420;2023-04-12T00:13:27;1.10;;;1.10;;
20699;SDS011;10511;51.232;9.420;2023-04-12T00:15:54;1.00;;;1.00;;
20699;SDS011;10511;51.232;9.420;2023-04-12T00:18:21;1.20;;;1.20;;
20699;SDS011;10511;51.232;9.420;2023-04-12T00:20:49;1.10;;;1.10;;
20699;SDS011;10511;51.232;9.420;2023-04-12T00:23:16;1.00;;;1.00;;
20699;SDS011;10511;51.232;9.420;2023-04-12T00:25:44;1.10;;;1.10;;
20699;SDS011;10511;51.232;9.420;2023-04-12T00:28:11;1.10;;;1.10;;
20699;SDS011;10511;51.232;9.420;2023-04-12T00:30:37;1.10;;;1.10;;
20699;SDS011;10511;51.232;9.420;2023-04-12T00:33:05;1.10;;;1.10;;
20699;SDS011;10511;51.232;9.420;2023-04-12T00:35:32;1.10;;;1.10;;
20699;SDS011;10511;51.232;9.420;2023-04-12T00:37:59;1.20;;;1.20;;
20699;SDS011;10511;51.232;9.420;2023-04-12T00:40:26;1.20;;;1.20;;
20699;SDS011;10511;51.232;9.420;2023-04-12T00:42:55;1.20;;;1.20;;
20699;SDS011;10511;51.232;9.420;2023-04-12T00:45:22;1.20;;;1.20;;
20699;SDS011;10511;51.232;9.420;2023-04-12T00:47:48;1.10;;;1.10;;
20699;SDS011;10511;51.232;9.420;2023-04-12T00:50:15;1.03;;;1.03;;
20699;SDS011;10511;51.232;9.420;2023-04-12T00:52:42;1.10;;;1.10;;
20699;SDS011;10511;51.232;9.420;2023-04-12T00:55:09;1.13;;;1.13;;
20699;SDS011;10511;51.232;9.420;2023-04-12T00:57:36;1.20;;;1.20;;
20699;SDS011;10511;51.232;9.420;2023-04-12T01:00:06;1.10;;;1.10;;
20699;SDS011;10511;51.232;9.420;2023-04-12T01:02:35;1.20;;;1.20;;
20699;SDS011;10511;51.232;9.420;2023-04-12T01:05:03;1.30;;;1.30;;
20699;SDS011;10511;51.232;9.420;2023-04-12T01:07:34;1.20;;;1.20;;
20699;SDS011;10511;51.232;9.420;2023-04-12T01:10:11;1.20;;;1.20;;
20699;SDS011;10511;51.232;9.420;2023-04-12T01:12:44;1.10;;;1.10;;
20699;SDS011;10511;51.232;9.420;2023-04-12T01:15:18;1.10;;;1.10;;
20699;SDS011;10511;51.232;9.420;2023-04-12T01:17:49;1.10;;;1.10;;
20699;SDS011;10511;51.232;9.420;2023-04-12T01:20:22;1.10;;;1.10;;
20699;SDS011;10511;51.232;9.420;2023-04-12T01:26:07;1.20;;;1.20;;
20699;SDS011;10511;51.232;9.420;2023-04-12T01:28:43;1.10;;;1.10;;
20699;SDS011;10511;51.232;9.420;2023-04-12T01:31:12;1.10;;;1.10;;
20699;SDS011;10511;51.232;9.420;2023-04-12T01:33:39;1.10;;;1.10;;
20699;SDS011;10511;51.232;9.420;2023-04-12T01:36:09;1.10;;;1.10;;
20699;SDS011;10511;51.232;9.420;2023-04-12T01:38:38;1.10;;;1.10;;
20699;SDS011;10511;51.232;9.420;2023-04-12T01:41:06;1.20;;;1.20;;
20699;SDS011;10511;51.232;9.420;2023-04-12T01:43:38;1.10;;;1.10;;
20699;SDS011;10511;51.232;9.420;2023-04-12T01:46:08;1.10;;;1.10;;
20699;SDS011;10511;51.232;9.420;2023-04-12T01:48:36;1.10;;;1.10;;
20699;SDS011;10511;51.232;9.420;2023-04-12T01:51:04;1.00;;;1.00;;
20699;SDS011;10511;51.232;9.420;2023-04-12T01:53:35;1.10;;;1.10;;
20699;SDS011;10511;51.232;9.420;2023-04-12T01:56:09;1.00;;;1.00;;
20699;SDS011;10511;51.232;9.420;2023-04-12T01:58:37;1.00;;;1.00;;
20699;SDS011;10511;51.232;9.420;2023-04-12T02:01:05;1.00;;;1.00;;
20699;SDS011;10511;51.232;9.420;2023-04-12T02:03:34;1.00;;;1.00;;
20699;SDS011;10511;51.232;9.420;2023-04-12T02:06:02;0.90;;;0.90;;
20699;SDS011;10511;51.232;9.420;2023-04-12T02:08:31;1.00;;;1.00;;
20699;SDS011;10511;51.232;9.420;2023-04-12T02:10:59;0.90;;;0.90;;
20699;SDS011;10511;51.232;9.420;2023-04-12T02:13:26;1.00;;;1.00;;
20699;SDS011;10511;51.232;9.420;2023-04-12T02:15:53;1.00;;;1.00;;
20699;SDS011;10511;51.232;9.420;2023-04-12T02:18:22;0.90;;;0.90;;
20699;SDS011;10511;51.232;9.420;2023-04-12T02:20:49;1.00;;;1.00;;
20699;SDS011;10511;51.232;9.420;2023-04-12T02:23:16;0.90;;;0.90;;
20699;SDS011;10511;51.232;9.420;2023-04-12T02:25:43;0.97;;;0.97;;
20699;SDS011;10511;51.232;9.420;2023-04-12T02:28:10;1.00;;;1.00;;
20699;SDS011;10511;51.232;9.420;2023-04-12T02:30:37;0.90;;;0.90;;
20699;SDS011;10511;51.232;9.420;2023-04-12T02:33:05;1.00;;;1.00;;
20699;SDS011;10511;51.232;9.420;2023-04-12T02:35:35;1.00;;;1.00;;
20699;SDS011;10511;51.232;9.420;2023-04-12T02:38:02;0.90;;;0.90;;
20699;SDS011;10511;51.232;9.420;2023-04-12T02:40:32;1.00;;;1.00;;
20699;SDS011;10511;51.232;9.420;2023-04-12T02:42:59;1.00;;;1.00;;
20699;SDS011;10511;51.232;9.420;2023-04-12T02:45:26;1.00;;;1.00;;
20699;SDS011;10511;51.232;9.420;2023-04-12T02:47:53;1.00;;;1.00;;
20699;SDS011;10511;51.232;9.420;2023-04-12T02:50:20;0.90;;;0.90;;
20699;SDS011;10511;51.232;9.420;2023-04-12T02:52:48;1.00;;;1.00;;
20699;SDS011;10511;51.232;9.420;2023-04-12T02:55:15;1.00;;;1.00;;
20699;SDS011;10511;51.232;9.420;2023-04-12T02:57:43;1.00;;;1.00;;
20699;SDS011;10511;51.232;9.420;2023-04-12T03:00:10;1.10;;;1.10;;
20699;SDS011;10511;51.232;9.420;2023-04-12T03:02:39;1.00;;;1.00;;
20699;SDS011;10511;51.232;9.420;2023-04-12T03:05:06;1.00;;;1.00;;
20699;SDS011;10511;51.232;9.420;2023-04-12T03:07:33;1.00;;;1.00;;
20699;SDS011;10511;51.232;9.420;2023-04-12T03:10:02;1.00;;;1.00;;
20699;SDS011;10511;51.232;9.420;2023-04-12T03:12:31;1.00;;;1.00;;
20699;SDS011;10511;51.232;9.420;2023-04-12T03:14:58;1.00;;;1.00;;
20699;SDS011;10511;51.232;9.420;2023-04-12T03:17:25;1.00;;;1.00;;
20699;SDS011;10511;51.232;9.420;2023-04-12T03:19:52;1.10;;;1.10;;
20699;SDS011;10511;51.232;9.420;2023-04-12T03:22:22;1.00;;;1.00;;
20699;SDS011;10511;51.232;9.420;2023-04-12T03:24:49;1.07;;;1.07;;
20699;SDS011;10511;51.232;9.420;2023-04-12T03:27:17;1.00;;;1.00;;
20699;SDS011;10511;51.232;9.420;2023-04-12T03:29:44;1.00;;;1.00;;
20699;SDS011;10511;51.232;9.420;2023-04-12T03:32:11;1.00;;;1.00;;
20699;SDS011;10511;51.232;9.420;2023-04-12T03:34:38;1.00;;;1.00;;
20699;SDS011;10511;51.232;9.420;2023-04-12T03:37:04;1.00;;;1.00;;
20699;SDS011;10511;51.232;9.420;2023-04-12T03:39:31;1.00;;;1.00;;
20699;SDS011;10511;51.232;9.420;2023-04-12T03:41:58;1.10;;;1.10;;
20699;SDS011;10511;51.232;9.420;2023-04-12T03:44:26;1.00;;;1.00;;
20699;SDS011;10511;51.232;9.420;2023-04-12T03:46:53;1.00;;;1.00;;
20699;SDS011;10511;51.232;9.420;2023-04-12T03:49:20;1.10;;;1.10;;
20699;SDS011;10511;51.232;9.420;2023-04-12T03:51:47;1.00;;;1.00;;
20699;SDS011;10511;51.232;9.420;2023-04-12T03:54:14;1.00;;;1.00;;
20699;SDS011;10511;51.232;9.420;2023-04-12T03:56:41;1.00;;;1.00;;
20699;SDS011;10511;51.232;9.420;2023-04-12T03:59:08;1.00;;;1.00;;
20699;SDS011;10511;51.232;9.420;2023-04-12T04:01:36;1.00;;;1.00;;
20699;SDS011;10511;51.232;9.420;2023-04-12T04:04:03;1.00;;;1.00;;
20699;SDS011;10511;51.232;9.420;2023-04-12T04:06:31;1.10;;;1.10;;
20699;SDS011;10511;51.232;9.420;2023-04-12T04:08:58;1.10;;;1.10;;
20699;SDS011;10511;51.232;9.420;2023-04-12T04:11:25;1.10;;;1.10;;
20699;SDS011;10511;51.232;9.420;2023-04-12T04:13:52;1.00;;;1.00;;
20699;SDS011;10511;51.232;9.420;2023-04-12T04:16:19;1.00;;;1.00;;
20699;SDS011;10511;51.232;9.420;2023-04-12T04:18:47;1.03;;;1.03;;
20699;SDS011;10511;51.232;9.420;2023-04-12T04:21:14;1.00;;;1.00;;
20699;SDS011;10511;51.232;9.420;2023-04-12T04:23:41;1.10;;;1.10;;
20699;SDS011;10511;51.232;9.420;2023-04-12T04:26:12;1.10;;;1.10;;
20699;SDS011;10511;51.232;9.420;2023-04-12T04:28:40;1.17;;;1.17;;
20699;SDS011;10511;51.232;9.420;2023-04-12T04:31:09;1.10;;;1.10;;
20699;SDS011;10511;51.232;9.420;2023-04-12T04:33:36;1.10;;;1.10;;
20699;SDS011;10511;51.232;9.420;2023-04-12T04:36:06;1.20;;;1.20;;
20699;SDS011;10511;51.232;9.420;2023-04-12T04:38:33;1.20;;;1.20;;
20699;SDS011;10511;51.232;9.420;2023-04-12T04:41:01;1.20;;;1.20;;
20699;SDS011;10511;51.232;9.420;2023-04-12T04:43:29;1.20;;;1.20;;
20699;SDS011;10511;51.232;9.420;2023-04-12T04:45:58;1.20;;;1.20;;
20699;SDS011;10511;51.232;9.420;2023-04-12T04:48:26;1.30;;;1.30;;
20699;SDS011;10511;51.232;9.420;2023-04-12T04:50:54;1.10;;;1.10;;
20699;SDS011;10511;51.232;9.420;2023-04-12T04:53:22;1.20;;;1.20;;
20699;SDS011;10511;51.232;9.420;2023-04-12T04:55:55;1.30;;;1.30;;
20699;SDS011;10511;51.232;9.420;2023-04-12T04:58:22;1.10;;;1.10;;
20699;SDS011;10511;51.232;9.420;2023-04-12T05:00:49;1.13;;;1.13;;
20699;SDS011;10511;51.232;9.420;2023-04-12T05:03:19;1.10;;;1.10;;
20699;SDS011;10511;51.232;9.420;2023-04-12T05:05:47;1.10;;;1.10;;
20699;SDS011;10511;51.232;9.420;2023-04-12T05:08:14;1.07;;;1.07;;
20699;SDS011;10511;51.232;9.420;2023-04-12T05:10:43;1.10;;;1.10;;
20699;SDS011;10511;51.232;9.420;2023-04-12T05:13:10;1.10;;;1.10;;
20699;SDS011;10511;51.232;9.420;2023-04-12T05:15:39;1.10;;;1.10;;
20699;SDS011;10511;51.232;9.420;2023-04-12T05:18:06;1.10;;;1.10;;
20699;SDS011;10511;51.232;9.420;2023-04-12T05:20:32;1.20;;;1.20;;
20699;SDS011;10511;51.232;9.420;2023-04-12T05:22:59;1.20;;;1.20;;
20699;SDS011;10511;51.232;9.420;2023-04-12T05:25:26;1.20;;;1.20;;
20699;SDS011;10511;51.232;9.420;2023-04-12T05:27:54;1.20;;;1.20;;
20699;SDS011;10511;51.232;9.420;2023-04-12T05:30:21;1.17;;;1.17;;
20699;SDS011;10511;51.232;9.420;2023-04-12T05:32:48;1.20;;;1.20;;
20699;SDS011;10511;51.232;9.420;2023-04-12T05:35:15;1.10;;;1.10;;
20699;SDS011;10511;51.232;9.420;2023-04-12T05:37:42;1.10;;;1.10;;
20699;SDS011;10511;51.232;9.420;2023-04-12T05:40:11;1.10;;;1.10;;
20699;SDS011;10511;51.232;9.420;2023-04-12T05:42:40;1.20;;;1.20;;
20699;SDS011;10511;51.232;9.420;2023-04-12T05:45:09;1.10;;;1.10;;
20699;SDS011;10511;51.232;9.420;2023-04-12T05:47:36;1.10;;;1.10;;
20699;SDS011;10511;51.232;9.420;2023-04-12T05:50:04;1.13;;;1.13;;
20699;SDS011;10511;51.232;9.420;2023-04-12T05:52:31;1.30;;;1.30;;
20699;SDS011;10511;51.232;9.420;2023-04-12T05:54:58;1.10;;;1.10;;
20699;SDS011;10511;51.232;9.420;2023-04-12T05:57:26;1.17;;;1.17;;
20699;SDS011;10511;51.232;9.420;2023-04-12T05:59:52;1.10;;;1.10;;
20699;SDS011;10511;51.232;9.420;2023-04-12T06:02:21;1.20;;;1.20;;
20699;SDS011;10511;51.232;9.420;2023-04-12T06:04:49;1.10;;;1.10;;
20699;SDS011;10511;51.232;9.420;2023-04-12T06:07:17;1.20;;;1.20;;
20699;SDS011;10511;51.232;9.420;2023-04-12T06:09:45;1.10;;;1.10;;
20699;SDS011;10511;51.232;9.420;2023-04-12T06:12:13;1.20;;;1.20;;
20699;SDS011;10511;51.232;9.420;2023-04-12T06:14:40;1.10;;;1.10;;
20699;SDS011;10511;51.232;9.420;2023-04-12T06:17:07;1.17;;;1.17;;
20699;SDS011;10511;51.232;9.420;2023-04-12T06:19:35;1.13;;;1.13;;
20699;SDS011;10511;51.232;9.420;2023-04-12T06:22:02;1.10;;;1.10;;
20699;SDS011;10511;51.232;9.420;2023-04-12T06:24:29;1.20;;;1.20;;
20699;SDS011;10511;51.232;9.420;2023-04-12T06:26:56;1.20;;;1.20;;
20699;SDS011;10511;51.232;9.420;2023-04-12T06:29:23;1.10;;;1.10;;
20699;SDS011;10511;51.232;9.420;2023-04-12T06:31:50;1.20;;;1.20;;
20699;SDS011;10511;51.232;9.420;2023-04-12T06:34:17;1.07;;;1.07;;
20699;SDS011;10511;51.232;9.420;2023-04-12T06:36:45;1.10;;;1.10;;
20699;SDS011;10511;51.232;9.420;2023-04-12T06:39:12;1.10;;;1.10;;
20699;SDS011;10511;51.232;9.420;2023-04-12T06:41:40;1.10;;;1.10;;
20699;SDS011;10511;51.232;9.420;2023-04-12T06:44:07;1.10;;;1.10;;
20699;SDS011;10511;51.232;9.420;2023-04-12T06:46:34;1.00;;;1.00;;
20699;SDS011;10511;51.232;9.420;2023-04-12T06:49:01;1.10;;;1.10;;
20699;SDS011;10511;51.232;9.420;2023-04-12T06:51:29;1.00;;;1.00;;
20699;SDS011;10511;51.232;9.420;2023-04-12T06:53:57;1.00;;;1.00;;
20699;SDS011;10511;51.232;9.420;2023-04-12T06:56:24;1.20;;;1.20;;
20699;SDS011;10511;51.232;9.420;2023-04-12T06:58:51;1.10;;;1.10;;
20699;SDS011;10511;51.232;9.420;2023-04-12T07:01:18;1.10;;;1.10;;
20699;SDS011;10511;51.232;9.420;2023-04-12T07:03:45;1.10;;;1.10;;
20699;SDS011;10511;51.232;9.420;2023-04-12T07:06:12;1.10;;;1.10;;
20699;SDS011;10511;51.232;9.420;2023-04-12T07:08:38;1.10;;;1.10;;
20699;SDS011;10511;51.232;9.420;2023-04-12T07:11:07;1.10;;;1.10;;
20699;SDS011;10511;51.232;9.420;2023-04-12T07:13:33;1.10;;;1.10;;
20699;SDS011;10511;51.232;9.420;2023-04-12T07:16:00;1.00;;;1.00;;
20699;SDS011;10511;51.232;9.420;2023-04-12T07:18:27;1.00;;;1.00;;
20699;SDS011;10511;51.232;9.420;2023-04-12T07:20:54;1.10;;;1.10;;
20699;SDS011;10511;51.232;9.420;2023-04-12T07:23:22;1.10;;;1.10;;
20699;SDS011;10511;51.232;9.420;2023-04-12T07:25:49;1.10;;;1.10;;
20699;SDS011;10511;51.232;9.420;2023-04-12T07:28:17;1.10;;;1.10;;
20699;SDS011;10511;51.232;9.420;2023-04-12T07:30:45;1.10;;;1.10;;
20699;SDS011;10511;51.232;9.420;2023-04-12T07:33:11;1.10;;;1.10;;
20699;SDS011;10511;51.232;9.420;2023-04-12T07:35:38;1.10;;;1.10;;
20699;SDS011;10511;51.232;9.420;2023-04-12T07:38:05;1.10;;;1.10;;
20699;SDS011;10511;51.232;9.420;2023-04-12T07:40:32;1.10;;;1.10;;
20699;SDS011;10511;51.232;9.420;2023-04-12T07:42:59;1.10;;;1.10;;
20699;SDS011;10511;51.232;9.420;2023-04-12T07:45:27;1.10;;;1.10;;
20699;SDS011;10511;51.232;9.420;2023-04-12T07:47:54;1.00;;;1.00;;
20699;SDS011;10511;51.232;9.420;2023-04-12T07:50:21;1.10;;;1.10;;
20699;SDS011;10511;51.232;9.420;2023-04-12T07:52:48;1.10;;;1.10;;
20699;SDS011;10511;51.232;9.420;2023-04-12T07:55:15;1.10;;;1.10;;
20699;SDS011;10511;51.232;9.420;2023-04-12T07:57:41;1.07;;;1.07;;
20699;SDS011;10511;51.232;9.420;2023-04-12T08:00:09;1.00;;;1.00;;
20699;SDS011;10511;51.232;9.420;2023-04-12T08:02:37;1.10;;;1.10;;
20699;SDS011;10511;51.232;9.420;2023-04-12T08:05:05;1.10;;;1.10;;
20699;SDS011;10511;51.232;9.420;2023-04-12T08:07:32;1.07;;;1.07;;
20699;SDS011;10511;51.232;9.420;2023-04-12T08:09:59;1.10;;;1.10;;
20699;SDS011;10511;51.232;9.420;2023-04-12T08:12:26;1.10;;;1.10;;
20699;SDS011;10511;51.232;9.420;2023-04-12T08:14:53;1.00;;;1.00;;
20699;SDS011;10511;51.232;9.420;2023-04-12T08:17:20;1.00;;;1.00;;
20699;SDS011;10511;51.232;9.420;2023-04-12T08:19:48;1.00;;;1.00;;
20699;SDS011;10511;51.232;9.420;2023-04-12T08:22:15;1.00;;;1.00;;
20699;SDS011;10511;51.232;9.420;2023-04-12T08:24:42;1.00;;;1.00;;
20699;SDS011;10511;51.232;9.420;2023-04-12T08:27:09;1.00;;;1.00;;
20699;SDS011;10511;51.232;9.420;2023-04-12T08:29:37;1.00;;;1.00;;
20699;SDS011;10511;51.232;9.420;2023-04-12T08:32:04;1.00;;;1.00;;
20699;SDS011;10511;51.232;9.420;2023-04-12T08:34:33;1.00;;;1.00;;
20699;SDS011;10511;51.232;9.420;2023-04-12T08:37:02;1.07;;;1.07;;
20699;SDS011;10511;51.232;9.420;2023-04-12T08:39:29;1.03;;;1.03;;
20699;SDS011;10511;51.232;9.420;2023-04-12T08:41:56;1.10;;;1.10;;
20699;SDS011;10511;51.232;9.420;2023-04-12T08:44:32;1.00;;;1.00;;
20699;SDS011;10511;51.232;9.420;2023-04-12T08:47:01;1.00;;;1.00;;
20699;SDS011;10511;51.232;9.420;2023-04-12T08:49:29;1.00;;;1.00;;
20699;SDS011;10511;51.232;9.420;2023-04-12T08:51:57;1.10;;;1.10;;
20699;SDS011;10511;51.232;9.420;2023-04-12T08:54:27;1.00;;;1.00;;
20699;SDS011;10511;51.232;9.420;2023-04-12T08:56:54;1.00;;;1.00;;
20699;SDS011;10511;51.232;9.420;2023-04-12T08:59:25;1.03;;;1.03;;
20699;SDS011;10511;51.232;9.420;2023-04-12T09:01:53;1.00;;;1.00;;
20699;SDS011;10511;51.232;9.420;2023-04-12T09:04:20;1.03;;;1.03;;
20699;SDS011;10511;51.232;9.420;2023-04-12T09:06:47;1.00;;;1.00;;
20699;SDS011;10511;51.232;9.420;2023-04-12T09:09:14;1.00;;;1.00;;
20699;SDS011;10511;51.232;9.420;2023-04-12T09:11:43;1.10;;;1.10;;
20699;SDS011;10511;51.232;9.420;2023-04-12T09:14:19;1.10;;;1.10;;
20699;SDS011;10511;51.232;9.420;2023-04-12T09:16:47;1.10;;;1.10;;
20699;SDS011;10511;51.232;9.420;2023-04-12T09:19:14;1.00;;;1.00;;
20699;SDS011;10511;51.232;9.420;2023-04-12T09:21:50;1.00;;;1.00;;
20699;SDS011;10511;51.232;9.420;2023-04-12T09:24:19;1.10;;;1.10;;
20699;SDS011;10511;51.232;9.420;2023-04-12T09:26:49;1.00;;;1.00;;
20699;SDS011;10511;51.232;9.420;2023-04-12T09:29:28;1.10;;;1.10;;
20699;SDS011;10511;51.232;9.420;2023-04-12T09:31:55;1.00;;;1.00;;
20699;SDS011;10511;51.232;9.420;2023-04-12T09:34:26;1.00;;;1.00;;
20699;SDS011;10511;51.232;9.420;2023-04-12T09:36:53;1.00;;;1.00;;
20699;SDS011;10511;51.232;9.420;2023-04-12T09:39:29;1.00;;;1.00;;
20699;SDS011;10511;51.232;9.420;2023-04-12T09:42:04;1.00;;;1.00;;
20699;SDS011;10511;51.232;9.420;2023-04-12T09:44:31;1.00;;;1.00;;
20699;SDS011;10511;51.232;9.420;2023-04-12T09:46:59;1.00;;;1.00;;
20699;SDS011;10511;51.232;9.420;2023-04-12T09:49:34;1.00;;;1.00;;
20699;SDS011;10511;51.232;9.420;2023-04-12T09:52:03;1.00;;;1.00;;
20699;SDS011;10511;51.232;9.420;2023-04-12T09:54:31;1.00;;;1.00;;
20699;SDS011;10511;51.232;9.420;2023-04-12T09:57:04;1.00;;;1.00;;
20699;SDS011;10511;51.232;9.420;2023-04-12T09:59:33;1.00;;;1.00;;
20699;SDS011;10511;51.232;9.420;2023-04-12T10:02:03;1.00;;;1.00;;
20699;SDS011;10511;51.232;9.420;2023-04-12T10:04:35;1.00;;;1.00;;
20699;SDS011;10511;51.232;9.420;2023-04-12T10:07:05;1.00;;;1.00;;
20699;SDS011;10511;51.232;9.420;2023-04-12T10:09:32;0.97;;;0.97;;
20699;SDS011;10511;51.232;9.420;2023-04-12T10:12:00;1.00;;;1.00;;
20699;SDS011;10511;51.232;9.420;2023-04-12T10:14:30;1.00;;;1.00;;
20699;SDS011;10511;51.232;9.420;2023-04-12T10:16:58;1.10;;;1.10;;
20699;SDS011;10511;51.232;9.420;2023-04-12T10:19:26;1.00;;;1.00;;
20699;SDS011;10511;51.232;9.420;2023-04-12T10:21:54;1.00;;;1.00;;
20699;SDS011;10511;51.232;9.420;2023-04-12T10:24:22;1.17;;;1.17;;
20699;SDS011;10511;51.232;9.420;2023-04-12T10:26:49;1.00;;;1.00;;
20699;SDS011;10511;51.232;9.420;2023-04-12T10:29:21;0.90;;;0.90;;
20699;SDS011;10511;51.232;9.420;2023-04-12T10:31:53;1.00;;;1.00;;
20699;SDS011;10511;51.232;9.420;2023-04-12T10:34:25;1.00;;;1.00;;
20699;SDS011;10511;51.232;9.420;2023-04-12T10:36:53;1.00;;;1.00;;
20699;SDS011;10511;51.232;9.420;2023-04-12T10:39:35;1.00;;;1.00;;
20699;SDS011;10511;51.232;9.420;2023-04-12T10:48:03;1.00;;;1.00;;
20699;SDS011;10511;51.232;9.420;2023-04-12T10:50:31;1.10;;;1.10;;
20699;SDS011;10511;51.232;9.420;2023-04-12T10:55:51;0.90;;;0.90;;
20699;SDS011;10511;51.232;9.420;2023-04-12T11:01:26;1.00;;;1.00;;
20699;SDS011;10511;51.232;9.420;2023-04-12T11:06:48;0.90;;;0.90;;
20699;SDS011;10511;51.232;9.420;2023-04-12T11:09:20;1.00;;;1.00;;
20699;SDS011;10511;51.232;9.420;2023-04-12T11:11:50;1.00;;;1.00;;
20699;SDS011;10511;51.232;9.420;2023-04-12T11:14:24;1.00;;;1.00;;
20699;SDS011;10511;51.232;9.420;2023-04-12T11:19:51;0.90;;;0.90;;
20699;SDS011;10511;51.232;9.420;2023-04-12T11:22:23;1.00;;;1.00;;
20699;SDS011;10511;51.232;9.420;2023-04-12T11:24:52;0.90;;;0.90;;
20699;SDS011;10511;51.232;9.420;2023-04-12T11:27:20;0.90;;;0.90;;
20699;SDS011;10511;51.232;9.420;2023-04-12T11:29:49;0.80;;;0.80;;
20699;SDS011;10511;51.232;9.420;2023-04-12T11:32:19;0.90;;;0.90;;
20699;SDS011;10511;51.232;9.420;2023-04-12T11:34:46;0.87;;;0.87;;
20699;SDS011;10511;51.232;9.420;2023-04-12T11:37:15;0.90;;;0.90;;
20699;SDS011;10511;51.232;9.420;2023-04-12T11:39:44;0.90;;;0.90;;
20699;SDS011;10511;51.232;9.420;2023-04-12T11:42:12;0.90;;;0.90;;
20699;SDS011;10511;51.232;9.420;2023-04-12T11:44:41;0.90;;;0.90;;
20699;SDS011;10511;51.232;9.420;2023-04-12T11:47:12;0.90;;;0.90;;
20699;SDS011;10511;51.232;9.420;2023-04-12T11:49:44;0.90;;;0.90;;
20699;SDS011;10511;51.232;9.420;2023-04-12T11:52:13;0.90;;;0.90;;
20699;SDS011;10511;51.232;9.420;2023-04-12T11:54:42;0.90;;;0.90;;
20699;SDS011;10511;51.232;9.420;2023-04-12T11:57:10;0.90;;;0.90;;
20699;SDS011;10511;51.232;9.420;2023-04-12T11:59:38;0.80;;;0.80;;
20699;SDS011;10511;51.232;9.420;2023-04-12T12:02:07;0.80;;;0.80;;
20699;SDS011;10511;51.232;9.420;2023-04-12T12:04:36;1.00;;;1.00;;
20699;SDS011;10511;51.232;9.420;2023-04-12T12:07:04;0.80;;;0.80;;
20699;SDS011;10511;51.232;9.420;2023-04-12T12:09:33;0.90;;;0.90;;
20699;SDS011;10511;51.232;9.420;2023-04-12T12:12:02;0.90;;;0.90;;
20699;SDS011;10511;51.232;9.420;2023-04-12T12:14:31;0.80;;;0.80;;
20699;SDS011;10511;51.232;9.420;2023-04-12T12:17:00;0.90;;;0.90;;
20699;SDS011;10511;51.232;9.420;2023-04-12T12:19:28;0.80;;;0.80;;
20699;SDS011;10511;51.232;9.420;2023-04-12T12:22:12;0.90;;;0.90;;
20699;SDS011;10511;51.232;9.420;2023-04-12T12:24:44;0.90;;;0.90;;
20699;SDS011;10511;51.232;9.420;2023-04-12T12:27:16;0.80;;;0.80;;
20699;SDS011;10511;51.232;9.420;2023-04-12T12:29:51;0.90;;;0.90;;
20699;SDS011;10511;51.232;9.420;2023-04-12T12:32:19;0.80;;;0.80;;
20699;SDS011;10511;51.232;9.420;2023-04-12T12:34:53;0.80;;;0.80;;
20699;SDS011;10511;51.232;9.420;2023-04-12T12:37:25;0.80;;;0.80;;
20699;SDS011;10511;51.232;9.420;2023-04-12T12:40:01;0.80;;;0.80;;
20699;SDS011;10511;51.232;9.420;2023-04-12T12:42:35;0.83;;;0.83;;
20699;SDS011;10511;51.232;9.420;2023-04-12T12:45:09;0.80;;;0.80;;
20699;SDS011;10511;51.232;9.420;2023-04-12T12:47:43;0.80;;;0.80;;
20699;SDS011;10511;51.232;9.420;2023-04-12T12:50:14;0.80;;;0.80;;
20699;SDS011;10511;51.232;9.420;2023-04-12T12:52:42;0.90;;;0.90;;
20699;SDS011;10511;51.232;9.420;2023-04-12T12:55:11;0.90;;;0.90;;
20699;SDS011;10511;51.232;9.420;2023-04-12T12:57:38;0.80;;;0.80;;
20699;SDS011;10511;51.232;9.420;2023-04-12T13:00:07;0.80;;;0.80;;
20699;SDS011;10511;51.232;9.420;2023-04-12T13:02:35;0.80;;;0.80;;
20699;SDS011;10511;51.232;9.420;2023-04-12T13:05:02;0.80;;;0.80;;
20699;SDS011;10511;51.232;9.420;2023-04-12T13:07:29;0.80;;;0.80;;
20699;SDS011;10511;51.232;9.420;2023-04-12T13:09:56;0.80;;;0.80;;
20699;SDS011;10511;51.232;9.420;2023-04-12T13:12:25;0.80;;;0.80;;
20699;SDS011;10511;51.232;9.420;2023-04-12T13:14:52;0.80;;;0.80;;
20699;SDS011;10511;51.232;9.420;2023-04-12T13:17:19;0.80;;;0.80;;
20699;SDS011;10511;51.232;9.420;2023-04-12T13:19:46;0.87;;;0.87;;
20699;SDS011;10511;51.232;9.420;2023-04-12T13:22:14;0.80;;;0.80;;
20699;SDS011;10511;51.232;9.420;2023-04-12T13:24:41;0.90;;;0.90;;
20699;SDS011;10511;51.232;9.420;2023-04-12T13:27:08;0.90;;;0.90;;
20699;SDS011;10511;51.232;9.420;2023-04-12T13:29:37;0.80;;;0.80;;
20699;SDS011;10511;51.232;9.420;2023-04-12T13:32:04;0.80;;;0.80;;
20699;SDS011;10511;51.232;9.420;2023-04-12T13:34:31;0.90;;;0.90;;
20699;SDS011;10511;51.232;9.420;2023-04-12T13:36:58;0.80;;;0.80;;
20699;SDS011;10511;51.232;9.420;2023-04-12T13:39:25;0.90;;;0.90;;
20699;SDS011;10511;51.232;9.420;2023-04-12T13:41:52;0.90;;;0.90;;
20699;SDS011;10511;51.232;9.420;2023-04-12T13:44:20;0.80;;;0.80;;
20699;SDS011;10511;51.232;9.420;2023-04-12T13:46:48;0.80;;;0.80;;
20699;SDS011;10511;51.232;9.420;2023-04-12T13:49:15;0.80;;;0.80;;
20699;SDS011;10511;51.232;9.420;2023-04-12T13:51:42;0.80;;;0.80;;
20699;SDS011;10511;51.232;9.420;2023-04-12T13:54:09;0.80;;;0.80;;
20699;SDS011;10511;51.232;9.420;2023-04-12T13:56:39;0.80;;;0.80;;
20699;SDS011;10511;51.232;9.420;2023-04-12T13:59:06;0.80;;;0.80;;
20699;SDS011;10511;51.232;9.420;2023-04-12T14:01:33;0.90;;;0.90;;
20699;SDS011;10511;51.232;9.420;2023-04-12T14:04:01;0.80;;;0.80;;
20699;SDS011;10511;51.232;9.420;2023-04-12T14:06:28;0.80;;;0.80;;
20699;SDS011;10511;51.232;9.420;2023-04-12T14:08:55;0.80;;;0.80;;
20699;SDS011;10511;51.232;9.420;2023-04-12T14:11:22;0.80;;;0.80;;
20699;SDS011;10511;51.232;9.420;2023-04-12T14:13:50;0.80;;;0.80;;
20699;SDS011;10511;51.232;9.420;2023-04-12T14:16:16;0.80;;;0.80;;
20699;SDS011;10511;51.232;9.420;2023-04-12T14:18:43;0.80;;;0.80;;
20699;SDS011;10511;51.232;9.420;2023-04-12T14:21:11;0.80;;;0.80;;
20699;SDS011;10511;51.232;9.420;2023-04-12T14:23:38;0.80;;;0.80;;
20699;SDS011;10511;51.232;9.420;2023-04-12T14:26:05;1.00;;;1.00;;
20699;SDS011;10511;51.232;9.420;2023-04-12T14:28:33;0.80;;;0.80;;
20699;SDS011;10511;51.232;9.420;2023-04-12T14:31:00;0.80;;;0.80;;
20699;SDS011;10511;51.232;9.420;2023-04-12T14:33:27;0.70;;;0.70;;
20699;SDS011;10511;51.232;9.420;2023-04-12T14:35:54;0.80;;;0.80;;
20699;SDS011;10511;51.232;9.420;2023-04-12T14:38:23;0.90;;;0.90;;
20699;SDS011;10511;51.232;9.420;2023-04-12T14:40:50;0.80;;;0.80;;
20699;SDS011;10511;51.232;9.420;2023-04-12T14:43:18;0.90;;;0.90;;
20699;SDS011;10511;51.232;9.420;2023-04-12T14:45:45;0.80;;;0.80;;
20699;SDS011;10511;51.232;9.420;2023-04-12T14:48:12;0.80;;;0.80;;
20699;SDS011;10511;51.232;9.420;2023-04-12T14:50:38;0.80;;;0.80;;
20699;SDS011;10511;51.232;9.420;2023-04-12T14:53:05;0.80;;;0.80;;
20699;SDS011;10511;51.232;9.420;2023-04-12T14:55:35;0.80;;;0.80;;
20699;SDS011;10511;51.232;9.420;2023-04-12T14:58:01;0.70;;;0.70;;
20699;SDS011;10511;51.232;9.420;2023-04-12T15:00:28;0.80;;;0.80;;
20699;SDS011;10511;51.232;9.420;2023-04-12T15:02:55;0.80;;;0.80;;
20699;SDS011;10511;51.232;9.420;2023-04-12T15:05:24;0.70;;;0.70;;
20699;SDS011;10511;51.232;9.420;2023-04-12T15:07:51;0.70;;;0.70;;
20699;SDS011;10511;51.232;9.420;2023-04-12T15:10:18;0.73;;;0.73;;
20699;SDS011;10511;51.232;9.420;2023-04-12T15:12:47;0.80;;;0.80;;
20699;SDS011;10511;51.232;9.420;2023-04-12T15:15:14;0.80;;;0.80;;